createdAt,value
2023-03-23T16:00:42.175Z,72.58
2023-03-23T16:05:46.173Z,72.57
2023-03-23T16:10:50.933Z,72.72
2023-03-23T16:15:54.315Z,72.73
2023-03-23T16:20:58.244Z,72.65
2023-03-23T16:26:01.551Z,72.49
2023-03-23T16:31:05.912Z,72.88
2023-03-23T16:36:12.988Z,72.99
2023-03-23T16:41:16.607Z,72.68
2023-03-23T16:46:20.316Z,72.80
2023-03-23T16:51:24.142Z,72.84
2023-03-23T16:56:27.580Z,72.95
2023-03-23T17:01:31.238Z,72.97
2023-03-23T17:06:34.790Z,73.13
2023-03-23T17:11:38.203Z,73.38
2023-03-23T17:16:41.682Z,73.13
2023-03-23T17:21:45.438Z,73.35
2023-03-23T17:26:48.749Z,73.45
2023-03-23T17:31:52.835Z,73.58
2023-03-23T17:36:56.194Z,73.54
2023-03-23T17:42:01.090Z,73.71
2023-03-23T17:47:04.708Z,73.79
2023-03-23T17:52:07.967Z,73.90
2023-03-23T17:57:11.838Z,73.95
2023-03-23T18:02:15.745Z,74.20
2023-03-23T18:07:23.750Z,74.40
2023-03-23T18:12:27.455Z,74.43
2023-03-23T18:17:31.083Z,74.69
2023-03-23T18:22:34.632Z,74.70
2023-03-23T18:27:38.310Z,74.72
2023-03-23T18:32:42.050Z,75.02
2023-03-23T18:37:48.116Z,74.96
2023-03-23T18:42:51.521Z,75.47
2023-03-23T18:47:55.081Z,75.52
2023-03-23T18:53:00.305Z,75.47
2023-03-23T18:58:04.565Z,75.62
2023-03-23T19:03:08.385Z,75.76
2023-03-23T19:08:12.078Z,75.85
2023-03-23T19:13:17.436Z,75.81
2023-03-23T19:18:21.768Z,75.93
2023-03-23T19:23:25.485Z,76.23
2023-03-23T19:33:35.898Z,76.13
2023-03-23T19:38:39.217Z,76.45
2023-03-23T19:43:43.542Z,76.55
2023-03-23T19:48:48.050Z,76.58
2023-03-23T19:53:52.321Z,76.52
2023-03-23T19:58:55.630Z,76.45
2023-03-23T20:04:00.314Z,76.48
2023-03-23T20:09:06.753Z,76.40
2023-03-23T20:14:11.095Z,76.30
2023-03-23T20:19:14.503Z,76.25
2023-03-23T20:24:18.017Z,76.32
2023-03-23T20:29:21.630Z,76.58
2023-03-23T20:34:31.716Z,77.00
2023-03-23T20:39:36.853Z,77.74
2023-03-23T20:44:41.857Z,79.53
2023-03-23T20:49:53.345Z,79.94
2023-03-23T20:54:57.340Z,80.42
2023-03-23T21:00:00.857Z,81.03
2023-03-23T21:05:05.299Z,81.70
2023-03-23T21:10:09.234Z,82.37
2023-03-23T21:15:13.045Z,82.24
2023-03-23T21:20:16.447Z,82.37
2023-03-23T21:25:22.345Z,82.74
2023-03-23T21:30:42.163Z,82.84
2023-03-23T21:35:45.950Z,82.67
2023-03-23T21:40:49.448Z,83.08
2023-03-23T21:45:56.354Z,83.33
2023-03-23T21:51:08.231Z,83.49
2023-03-23T21:56:12.082Z,83.65
2023-03-23T22:01:16.445Z,84.06
2023-03-23T22:06:31.305Z,83.98
2023-03-23T22:11:34.922Z,83.95
2023-03-23T22:16:38.261Z,84.37
2023-03-23T22:21:42.055Z,84.53
2023-03-23T22:26:46.213Z,84.36
2023-03-23T22:31:49.644Z,84.48
2023-03-23T22:36:53.114Z,84.67
2023-03-23T22:41:56.320Z,84.40
2023-03-23T22:46:59.937Z,84.88
2023-03-23T22:52:03.762Z,85.64
2023-03-23T22:57:07.099Z,85.53
2023-03-23T23:02:10.589Z,86.05
2023-03-23T23:07:14.829Z,86.18
2023-03-23T23:12:19.155Z,86.25
2023-03-23T23:17:22.259Z,86.30
2023-03-23T23:22:26.796Z,86.71
2023-03-23T23:27:30.114Z,86.83
2023-03-23T23:32:34.019Z,86.74
2023-03-23T23:37:37.556Z,87.08
2023-03-23T23:42:41.906Z,87.52
2023-03-23T23:47:46.186Z,87.42
2023-03-23T23:52:50.353Z,86.95
2023-03-23T23:57:54.173Z,87.17
